Time;durP1;ratioP1;P1;durP2;ratioP2;P2;SDS_P1;SDS_P2;PMS_P1;PMS_P2;Temp;Humidity;BMP_temperature;BMP_pressure;BME280_temperature;BME280_humidity;BME280_pressure;Samples;Min_cycle;Max_cycle;Signal;HPM_P1;HPM_P2
2021/12/09 00:01:33;;;;;;;19.05;6.93;;;;;;;3.37;100.00;99997.84;5068151;28;20041;-36
2021/12/09 00:04:08;;;;;;;15.45;6.68;;;;;;;3.37;100.00;99992.34;5071304;28;20059;-35
2021/12/09 00:06:37;;;;;;;13.23;6.95;;;;;;;3.39;100.00;99998.41;5066919;28;20045;-34
2021/12/09 00:09:08;;;;;;;13.05;6.30;;;;;;;3.41;100.00;99994.25;5054126;28;20056;-33
2021/12/09 00:11:43;;;;;;;15.73;6.45;;;;;;;3.34;100.00;99992.88;5071254;28;20062;-37
2021/12/09 00:14:13;;;;;;;13.88;6.75;;;;;;;3.36;100.00;99997.03;5070490;28;20052;-35
2021/12/09 00:16:41;;;;;;;12.65;6.13;;;;;;;3.37;100.00;100000.63;5071328;28;20154;-37
2021/12/09 00:19:10;;;;;;;14.98;6.90;;;;;;;3.39;100.00;99995.66;5071029;28;20151;-30
2021/12/09 00:21:38;;;;;;;13.20;6.47;;;;;;;3.39;100.00;99988.22;5070154;28;20046;-38
2021/12/09 00:24:06;;;;;;;15.23;7.15;;;;;;;3.42;100.00;99984.06;5071034;28;20148;-34
2021/12/09 00:26:34;;;;;;;13.25;6.85;;;;;;;3.43;100.00;99991.22;5070221;28;20076;-30
2021/12/09 00:29:02;;;;;;;17.25;6.90;;;;;;;3.48;100.00;99994.00;5070597;28;20059;-35
2021/12/09 00:31:30;;;;;;;17.33;7.00;;;;;;;3.50;100.00;99996.50;5070859;28;20052;-36
2021/12/09 00:33:59;;;;;;;14.18;6.03;;;;;;;3.53;100.00;99985.75;5070375;28;20056;-38
2021/12/09 00:36:32;;;;;;;16.15;6.82;;;;;;;3.55;100.00;100000.09;5070405;28;20485;-33
2021/12/09 00:39:00;;;;;;;13.57;6.63;;;;;;;3.60;100.00;100002.00;5071127;28;20532;-38
2021/12/09 00:41:28;;;;;;;12.88;5.93;;;;;;;3.60;100.00;100002.00;5070024;28;20032;-31
2021/12/09 00:43:56;;;;;;;13.48;6.60;;;;;;;3.62;100.00;100016.34;5059725;28;20052;-34
2021/12/09 00:46:23;;;;;;;15.48;6.63;;;;;;;3.63;100.00;100002.28;5070951;28;20044;-32
2021/12/09 00:48:51;;;;;;;15.75;6.55;;;;;;;3.65;100.00;100002.00;5070323;28;20048;-32
2021/12/09 00:51:20;;;;;;;13.90;5.97;;;;;;;3.67;100.00;100002.56;5070729;28;20139;-40
2021/12/09 00:53:49;;;;;;;16.92;6.57;;;;;;;3.71;100.00;100004.50;5070847;28;20040;-41
2021/12/09 00:56:17;;;;;;;14.35;6.13;;;;;;;3.71;100.00;100010.03;5070158;28;20049;-31
2021/12/09 00:58:45;;;;;;;12.48;6.70;;;;;;;3.73;100.00;100012.50;5070345;28;20600;-33
2021/12/09 01:01:13;;;;;;;14.70;6.80;;;;;;;3.77;100.00;100014.47;5070269;28;20052;-36
2021/12/09 01:03:43;;;;;;;14.15;6.45;;;;;;;3.78;100.00;100018.88;5070129;28;20537;-34
2021/12/09 01:06:11;;;;;;;13.52;6.53;;;;;;;3.78;100.00;100024.41;5070636;28;20084;-33
2021/12/09 01:08:41;;;;;;;12.75;6.55;;;;;;;3.81;100.00;100021.06;5066267;28;20044;-33
2021/12/09 01:11:12;;;;;;;12.65;5.88;;;;;;;3.84;100.00;100027.13;5053937;28;20051;-33
2021/12/09 01:13:41;;;;;;;13.48;5.78;;;;;;;3.87;100.00;100018.31;5070259;28;20524;-34
2021/12/09 01:16:09;;;;;;;12.48;6.25;;;;;;;3.88;100.00;100026.31;5069916;28;20054;-32
2021/12/09 01:18:39;;;;;;;14.68;5.88;;;;;;;3.92;100.00;100021.91;5070262;28;20493;-35
2021/12/09 01:21:09;;;;;;;13.27;6.00;;;;;;;3.93;100.00;100040.13;5070589;28;20128;-34
2021/12/09 01:23:37;;;;;;;15.77;6.45;;;;;;;3.91;100.00;100030.47;5068919;28;20131;-30
2021/12/09 01:26:06;;;;;;;17.77;6.88;;;;;;;3.87;100.00;100024.66;5070350;28;20493;-30
2021/12/09 01:28:44;;;;;;;13.82;5.68;;;;;;;3.93;100.00;100029.09;5070246;28;20452;-34
2021/12/09 01:31:18;;;;;;;17.08;6.57;;;;;;;3.91;100.00;100025.78;5069967;28;20520;-38
2021/12/09 01:33:47;;;;;;;14.25;6.32;;;;;;;3.91;100.00;100020.25;5069912;28;20404;-34
2021/12/09 01:36:16;;;;;;;15.90;5.75;;;;;;;3.93;100.00;100015.28;5070573;28;20064;-30
2021/12/09 01:38:44;;;;;;;19.08;6.25;;;;;;;3.95;100.00;100017.78;5069248;28;20049;-28
2021/12/09 01:41:11;;;;;;;11.38;5.70;;;;;;;3.95;100.00;100024.13;5072464;28;20045;-36
2021/12/09 01:43:40;;;;;;;14.18;6.25;;;;;;;3.95;100.00;100017.78;5073443;28;20501;-36
2021/12/09 01:46:10;;;;;;;17.13;6.78;;;;;;;3.91;100.00;100022.19;5073889;28;20040;-29
2021/12/09 01:48:39;;;;;;;15.38;7.18;;;;;;;3.90;100.00;100018.59;5073258;28;20052;-30
2021/12/09 01:51:09;;;;;;;12.65;6.32;;;;;;;3.91;100.00;100023.00;5072950;28;20162;-31
2021/12/09 01:53:37;;;;;;;16.33;6.40;;;;;;;3.92;100.00;100024.66;5073593;28;20047;-32
2021/12/09 01:56:07;;;;;;;13.88;5.95;;;;;;;3.95;100.00;100026.06;5073723;28;20044;-34
2021/12/09 01:58:35;;;;;;;16.63;6.40;;;;;;;3.91;100.00;100033.22;5072868;28;20048;-35
2021/12/09 02:01:06;;;;;;;16.27;5.95;;;;;;;3.92;100.00;100021.91;5069858;28;20131;-35
2021/12/09 02:03:35;;;;;;;13.23;5.70;;;;;;;3.93;100.00;100025.50;5073026;28;20063;-38
2021/12/09 02:06:04;;;;;;;15.45;6.28;;;;;;;3.95;100.00;100026.88;5072505;28;20048;-34
2021/12/09 02:08:32;;;;;;;15.85;6.18;;;;;;;3.93;100.00;100017.22;5073447;28;20049;-37
2021/12/09 02:11:00;;;;;;;16.02;6.45;;;;;;;3.92;100.00;100032.13;5073268;28;20044;-29
2021/12/09 02:13:28;;;;;;;16.80;6.10;;;;;;;3.88;100.00;100028.25;5072791;28;20043;-30
2021/12/09 02:15:57;;;;;;;13.57;6.15;;;;;;;3.88;100.00;100031.00;5069737;28;20048;-32
2021/12/09 02:18:26;;;;;;;15.13;6.45;;;;;;;3.90;100.00;100028.81;5072966;28;20147;-36
2021/12/09 02:21:10;;;;;;;13.02;6.22;;;;;;;3.89;100.00;100027.16;5072806;28;20059;-29
2021/12/09 02:23:40;;;;;;;13.25;5.78;;;;;;;3.86;100.00;100030.44;5057075;28;20043;-33
2021/12/09 02:26:08;;;;;;;15.32;6.22;;;;;;;3.85;100.00;100024.09;5072984;28;20058;-39
2021/12/09 02:28:36;;;;;;;18.27;6.40;;;;;;;3.78;100.00;100021.63;5072864;28;20131;-29
2021/12/09 02:31:05;;;;;;;16.40;6.20;;;;;;;3.75;100.00;100019.41;5072882;28;20453;-33
2021/12/09 02:33:33;;;;;;;14.95;6.05;;;;;;;3.71;100.00;100015.56;5072362;28;20159;-39
2021/12/09 02:36:01;;;;;;;12.02;5.97;;;;;;;3.68;100.00;100024.38;5071642;28;20045;-34
2021/12/09 02:38:30;;;;;;;14.85;5.70;;;;;;;3.60;100.00;100011.09;5073078;28;20048;-34
2021/12/09 02:41:02;;;;;;;14.77;6.05;;;;;;;3.60;100.00;100026.81;5071874;28;20044;-33
2021/12/09 02:43:30;;;;;;;13.17;5.43;;;;;;;3.58;100.00;100020.78;5072770;28;20135;-34
2021/12/09 02:46:00;;;;;;;15.85;6.35;;;;;;;3.56;100.00;100032.09;5072209;28;20802;-33
2021/12/09 02:48:28;;;;;;;16.33;6.03;;;;;;;3.49;100.00;100031.50;5072122;28;20561;-36
2021/12/09 02:50:56;;;;;;;16.17;6.57;;;;;;;3.43;100.00;100029.84;5071883;28;20507;-33
2021/12/09 02:53:24;;;;;;;17.55;6.32;;;;;;;3.44;100.00;100037.84;5071734;28;20047;-38
2021/12/09 02:55:53;;;;;;;20.80;7.28;;;;;;;3.45;100.00;100033.16;5071485;28;20408;-36
2021/12/09 02:58:21;;;;;;;12.10;5.68;;;;;;;3.45;100.00;100033.97;5072617;28;20057;-31
2021/12/09 03:01:00;;;;;;;17.98;5.85;;;;;;;3.42;100.00;100023.50;5072049;28;20044;-34
2021/12/09 03:03:28;;;;;;;14.00;6.20;;;;;;;3.42;100.00;100030.94;5072330;28;20134;-34
2021/12/09 03:05:59;;;;;;;18.15;6.47;;;;;;;3.40;100.00;100030.38;5072016;28;20131;-34
2021/12/09 03:08:34;;;;;;;14.80;6.18;;;;;;;3.39;100.00;100028.75;5071710;28;20040;-33
2021/12/09 03:11:07;;;;;;;14.80;6.43;;;;;;;3.39;100.00;100026.81;5072072;28;20509;-38
2021/12/09 03:13:35;;;;;;;14.80;5.88;;;;;;;3.38;100.00;100027.91;5067947;28;20489;-32
2021/12/09 03:16:04;;;;;;;17.45;6.43;;;;;;;3.34;100.00;100025.97;5071374;28;20148;-32
2021/12/09 03:18:37;;;;;;;19.35;7.22;;;;;;;3.37;100.00;100026.25;5071027;28;20050;-37
2021/12/09 03:21:13;;;;;;;21.80;6.65;;;;;;;3.38;100.00;100021.56;5071953;28;20102;-33
2021/12/09 03:23:41;;;;;;;15.30;6.53;;;;;;;3.40;100.00;100027.63;5070458;28;20041;-34
2021/12/09 03:26:10;;;;;;;16.52;6.88;;;;;;;3.43;100.00;100018.81;5071750;28;20429;-36
2021/12/09 03:28:38;;;;;;;22.02;7.05;;;;;;;3.46;100.00;100026.53;5072092;28;20062;-33
2021/12/09 03:31:07;;;;;;;15.90;6.40;;;;;;;3.46;100.00;100027.38;5071045;28;20125;-35
2021/12/09 03:33:35;;;;;;;18.33;6.15;;;;;;;3.48;100.00;100024.34;5071869;28;20107;-35
2021/12/09 03:36:06;;;;;;;14.07;5.93;;;;;;;3.49;100.00;100023.25;5071786;28;20040;-31
2021/12/09 03:38:35;;;;;;;16.58;6.68;;;;;;;3.45;100.00;100024.88;5071182;28;20074;-34
2021/12/09 03:41:04;;;;;;;16.73;6.38;;;;;;;3.46;100.00;100030.13;5071360;28;20067;-28
2021/12/09 03:43:33;;;;;;;18.42;6.65;;;;;;;3.45;100.00;100027.63;5070755;28;20516;-36
2021/12/09 03:46:01;;;;;;;16.85;6.00;;;;;;;3.46;100.00;100034.81;5071390;28;20501;-38
2021/12/09 03:48:30;;;;;;;15.05;6.30;;;;;;;3.49;100.00;100039.78;5071485;28;20052;-38
2021/12/09 03:50:58;;;;;;;10.43;5.97;;;;;;;3.52;100.00;100041.19;5071013;28;20405;-36
2021/12/09 03:53:26;;;;;;;18.80;7.05;;;;;;;3.50;100.00;100044.22;5071089;28;20071;-37
2021/12/09 03:55:54;;;;;;;17.77;6.18;;;;;;;3.53;100.00;100040.91;5071228;28;20055;-34
2021/12/09 03:58:22;;;;;;;16.58;6.15;;;;;;;3.54;100.00;100033.47;5070794;28;20044;-33
2021/12/09 04:00:52;;;;;;;12.95;6.05;;;;;;;3.53;100.00;100035.38;5071643;28;20508;-29
2021/12/09 04:03:20;;;;;;;14.63;5.85;;;;;;;3.53;100.00;100040.91;5070766;28;20099;-34
2021/12/09 04:05:48;;;;;;;18.92;6.50;;;;;;;3.55;100.00;100044.22;5070898;28;20048;-33
2021/12/09 04:08:18;;;;;;;15.27;6.07;;;;;;;3.53;100.00;100046.41;5070987;28;20135;-32
2021/12/09 04:10:46;;;;;;;19.60;6.50;;;;;;;3.55;100.00;100049.75;5070881;28;20048;-36
2021/12/09 04:13:13;;;;;;;17.95;5.55;;;;;;;3.53;100.00;100045.59;5069062;28;20398;-37
2021/12/09 04:15:41;;;;;;;17.83;6.57;;;;;;;3.47;100.00;100047.50;5071211;28;20046;-31
2021/12/09 04:18:11;;;;;;;13.13;5.57;;;;;;;3.49;100.00;100047.22;5070972;28;20480;-37
2021/12/09 04:20:39;;;;;;;14.95;6.00;;;;;;;3.49;100.00;100038.97;5070613;28;20079;-33
2021/12/09 04:23:08;;;;;;;19.08;6.32;;;;;;;3.45;100.00;100049.69;5070811;28;20089;-33
2021/12/09 04:25:36;;;;;;;18.38;6.50;;;;;;;3.44;100.00;100048.03;5070134;28;20054;-33
2021/12/09 04:28:05;;;;;;;19.92;6.82;;;;;;;3.43;100.00;100055.47;5070833;28;20096;-33
2021/12/09 04:30:33;;;;;;;17.67;6.00;;;;;;;3.42;100.00;100053.00;5070892;28;20053;-35
2021/12/09 04:33:02;;;;;;;17.33;6.05;;;;;;;3.44;100.00;100045.28;5070487;28;20036;-32
2021/12/09 04:35:31;;;;;;;19.40;6.30;;;;;;;3.42;100.00;100050.25;5070746;28;20047;-32
2021/12/09 04:37:59;;;;;;;11.90;6.22;;;;;;;3.42;100.00;100044.72;5070517;28;20088;-35
2021/12/09 04:40:26;;;;;;;15.68;5.75;;;;;;;3.41;100.00;100048.59;5070090;28;20052;-35
2021/12/09 04:42:54;;;;;;;17.25;5.57;;;;;;;3.37;100.00;100053.84;5070817;28;20056;-33
2021/12/09 04:45:27;;;;;;;16.77;6.13;;;;;;;3.34;100.00;100048.03;5067048;28;20052;-35
2021/12/09 04:47:55;;;;;;;15.75;5.40;;;;;;;3.32;100.00;100055.75;5070376;28;20107;-33
2021/12/09 04:50:23;;;;;;;14.45;5.22;;;;;;;3.31;100.00;100060.44;5070057;28;20106;-32
2021/12/09 04:52:53;;;;;;;14.65;4.95;;;;;;;3.29;100.00;100054.34;5070692;28;20044;-31
2021/12/09 04:55:21;;;;;;;13.52;5.82;;;;;;;3.26;100.00;100052.13;5069530;28;20149;-34
2021/12/09 04:57:49;;;;;;;15.60;5.93;;;;;;;3.24;100.00;100053.50;5071105;28;20052;-32
2021/12/09 05:00:20;;;;;;;17.80;6.03;;;;;;;3.24;100.00;100050.75;5070315;28;20054;-33
2021/12/09 05:03:02;;;;;;;16.27;5.80;;;;;;;3.21;100.00;100043.00;5069842;28;20049;-33
2021/12/09 05:05:34;;;;;;;12.48;5.60;;;;;;;3.16;100.00;100049.34;5070475;28;20090;-37
2021/12/09 05:08:06;;;;;;;13.57;5.15;;;;;;;3.14;100.00;100053.47;5070456;28;20128;-34
2021/12/09 05:10:51;;;;;;;14.57;6.32;;;;;;;3.08;100.00;100045.19;5070398;28;20040;-33
2021/12/09 05:13:20;;;;;;;15.32;6.00;;;;;;;3.05;100.00;100055.91;5070723;28;20047;-38
2021/12/09 05:15:48;;;;;;;14.60;6.32;;;;;;;3.04;100.00;100063.34;5069726;28;20071;-33
2021/12/09 05:18:16;;;;;;;15.32;5.78;;;;;;;3.04;100.00;100066.09;5072699;28;20075;-30
2021/12/09 05:20:44;;;;;;;14.57;6.15;;;;;;;3.03;100.00;100063.63;5073277;28;20048;-33
2021/12/09 05:23:15;;;;;;;12.70;5.93;;;;;;;2.99;100.00;100062.53;5073332;28;20063;-30
2021/12/09 05:25:43;;;;;;;20.90;6.10;;;;;;;2.97;100.00;100060.03;5073213;28;20060;-28
2021/12/09 05:28:15;;;;;;;16.70;5.53;;;;;;;2.94;100.00;100063.31;5073869;28;20045;-32
2021/12/09 05:33:25;;;;;;;17.90;6.22;;;;;;;2.86;100.00;100072.09;5073884;28;20395;-36
2021/12/09 05:35:53;;;;;;;17.20;5.95;;;;;;;2.82;100.00;100065.44;5073164;28;20071;-37
2021/12/09 05:38:23;;;;;;;15.88;5.93;;;;;;;2.82;100.00;100068.19;5073793;28;20044;-30
2021/12/09 05:40:51;;;;;;;17.00;6.18;;;;;;;2.77;100.00;100073.72;5074021;28;20131;-35
2021/12/09 05:43:19;;;;;;;16.08;5.90;;;;;;;2.75;100.00;100075.91;5073213;28;20044;-32
2021/12/09 05:45:48;;;;;;;14.88;6.00;;;;;;;2.72;100.00;100071.75;5073639;28;20096;-37
2021/12/09 05:48:17;;;;;;;17.80;6.78;;;;;;;2.69;100.00;100069.53;5073586;28;20052;-36
2021/12/09 05:50:45;;;;;;;17.35;6.45;;;;;;;2.67;100.00;100082.72;5072645;28;20493;-36
2021/12/09 05:53:13;;;;;;;15.75;5.80;;;;;;;2.65;100.00;100078.56;5073863;28;20068;-30
2021/12/09 05:55:44;;;;;;;14.02;6.13;;;;;;;2.63;100.00;100078.00;5073813;28;20037;-37
2021/12/09 05:58:12;;;;;;;18.27;6.30;;;;;;;2.61;100.00;100074.69;5073137;28;20053;-38
2021/12/09 06:00:39;;;;;;;15.55;6.25;;;;;;;2.57;100.00;100077.16;5073510;28;20048;-33
2021/12/09 06:03:08;;;;;;;14.88;6.20;;;;;;;2.60;100.00;100081.31;5073122;28;20102;-42
2021/12/09 06:05:36;;;;;;;17.17;6.20;;;;;;;2.59;100.00;100096.19;5072971;28;20076;-31
2021/12/09 06:08:05;;;;;;;19.48;6.10;;;;;;;2.60;100.00;100089.59;5072345;28;20075;-35
2021/12/09 06:10:34;;;;;;;16.83;6.40;;;;;;;2.59;100.00;100091.50;5073685;28;20059;-33
2021/12/09 06:13:03;;;;;;;17.05;6.90;;;;;;;2.56;100.00;100097.53;5072539;28;20041;-33
2021/12/09 06:15:32;;;;;;;14.27;5.75;;;;;;;2.57;100.00;100099.19;5072365;28;20052;-33
2021/12/09 06:18:00;;;;;;;17.55;7.15;;;;;;;2.53;100.00;100098.06;5072161;28;20493;-28
2021/12/09 06:20:28;;;;;;;16.42;6.38;;;;;;;2.52;100.00;100106.59;5073074;28;20528;-30
2021/12/09 06:22:56;;;;;;;16.55;6.80;;;;;;;2.48;100.00;100105.47;5072874;28;20051;-30
2021/12/09 06:25:24;;;;;;;16.67;6.80;;;;;;;2.45;100.00;100100.47;5072577;28;20045;-38
2021/12/09 06:27:54;;;;;;;18.13;7.00;;;;;;;2.43;100.00;100106.25;5071641;28;20068;-36
2021/12/09 06:30:24;;;;;;;15.48;6.72;;;;;;;2.41;100.00;100105.66;5073024;28;20056;-35
2021/12/09 06:32:52;;;;;;;19.83;6.80;;;;;;;2.41;100.00;100106.50;5072101;28;20040;-39
2021/12/09 06:35:20;;;;;;;17.90;6.82;;;;;;;2.43;100.00;100104.31;5073000;28;20049;-37
2021/12/09 06:37:48;;;;;;;18.30;6.63;;;;;;;2.45;100.00;100108.72;5072390;28;20049;-33
2021/12/09 06:40:18;;;;;;;19.80;6.90;;;;;;;2.49;100.00;100112.63;5072292;28;20082;-35
2021/12/09 06:42:47;;;;;;;15.65;6.32;;;;;;;2.51;100.00;100104.94;5060799;28;20147;-33
2021/12/09 06:45:17;;;;;;;20.73;6.53;;;;;;;2.52;100.00;100107.44;5071273;28;20049;-29
2021/12/09 06:47:47;;;;;;;14.50;5.60;;;;;;;2.56;100.00;100107.72;5071889;28;20040;-36
2021/12/09 06:50:17;;;;;;;14.68;5.80;;;;;;;2.59;100.00;100098.94;5072445;28;20072;-34
2021/12/09 06:52:45;;;;;;;17.38;6.95;;;;;;;2.57;100.00;100103.88;5071163;28;20423;-36
2021/12/09 06:55:15;;;;;;;16.90;6.63;;;;;;;2.59;100.00;100108.03;5066297;28;20044;-34
2021/12/09 06:57:43;;;;;;;22.60;7.07;;;;;;;2.56;100.00;100116.00;5055307;28;20044;-36
2021/12/09 07:00:14;;;;;;;18.33;7.13;;;;;;;2.57;100.00;100109.38;5071538;28;20087;-38
2021/12/09 07:02:44;;;;;;;19.70;6.70;;;;;;;2.58;100.00;100113.81;5071949;28;20048;-39
2021/12/09 07:05:15;;;;;;;18.63;6.30;;;;;;;2.63;100.00;100124.84;5071843;28;20447;-36
2021/12/09 07:07:43;;;;;;;17.65;6.80;;;;;;;2.62;100.00;100118.50;5071397;28;20056;-32
2021/12/09 07:10:13;;;;;;;21.95;7.45;;;;;;;2.64;100.00;100126.50;5071856;28;20143;-34
2021/12/09 07:12:41;;;;;;;19.45;7.30;;;;;;;2.65;100.00;100122.66;5072292;28;20055;-33
2021/12/09 07:15:11;;;;;;;17.35;6.50;;;;;;;2.69;100.00;100123.78;5071158;28;20052;-31
2021/12/09 07:17:39;;;;;;;22.38;7.90;;;;;;;2.66;100.00;100122.38;5071996;28;20075;-35
2021/12/09 07:20:09;;;;;;;21.35;7.32;;;;;;;2.70;100.00;100130.94;5069370;28;20048;-41
2021/12/09 07:22:39;;;;;;;21.15;6.75;;;;;;;2.72;100.00;100129.59;5070160;28;20052;-37
2021/12/09 07:25:08;;;;;;;19.85;7.15;;;;;;;2.70;100.00;100126.28;5070169;28;20081;-38
2021/12/09 07:27:36;;;;;;;20.33;8.05;;;;;;;2.72;100.00;100128.75;5067448;28;20048;-38
2021/12/09 07:30:05;;;;;;;17.67;6.63;;;;;;;2.75;100.00;100128.25;5069680;28;20047;-37
2021/12/09 07:32:33;;;;;;;19.98;6.90;;;;;;;2.77;100.00;100134.31;5069990;28;20048;-36
2021/12/09 07:35:01;;;;;;;21.88;7.28;;;;;;;2.73;100.00;100124.91;5069610;28;20052;-34
2021/12/09 07:37:29;;;;;;;20.50;7.10;;;;;;;2.73;100.00;100130.44;5069459;28;20056;-30
2021/12/09 07:39:58;;;;;;;16.33;5.88;;;;;;;2.72;100.00;100123.25;5069468;28;20052;-35
2021/12/09 07:42:26;;;;;;;19.40;6.65;;;;;;;2.72;100.00;100131.53;5066393;28;20044;-29
2021/12/09 07:44:54;;;;;;;18.60;7.00;;;;;;;2.72;100.00;100137.84;5069035;28;20040;-31
2021/12/09 07:47:21;;;;;;;21.67;7.45;;;;;;;2.70;100.00;100133.72;5069300;28;20048;-33
2021/12/09 07:49:49;;;;;;;19.55;6.53;;;;;;;2.72;100.00;100143.38;5069978;28;20048;-34
2021/12/09 07:52:17;;;;;;;15.85;6.55;;;;;;;2.75;100.00;100139.25;5069895;28;20056;-33
2021/12/09 07:54:45;;;;;;;19.90;7.05;;;;;;;2.77;100.00;100153.59;5070005;28;20052;-37
2021/12/09 07:57:14;;;;;;;19.08;6.78;;;;;;;2.81;100.00;100145.59;5069240;28;20048;-33
2021/12/09 07:59:41;;;;;;;17.48;6.80;;;;;;;2.83;100.00;100138.75;5069098;28;20333;-36
2021/12/09 08:02:10;;;;;;;19.30;7.72;;;;;;;2.85;100.00;100136.56;5066622;28;20063;-34
2021/12/09 08:04:37;;;;;;;18.63;7.03;;;;;;;2.87;100.00;100137.13;5067486;28;20045;-36
2021/12/09 08:07:06;;;;;;;22.58;7.90;;;;;;;2.90;100.00;100144.03;5066951;28;20056;-36
2021/12/09 08:09:34;;;;;;;21.80;8.20;;;;;;;2.96;100.00;100152.06;5067550;28;20058;-34
2021/12/09 08:12:03;;;;;;;20.20;8.18;;;;;;;2.99;100.00;100151.53;5068480;28;20062;-34
2021/12/09 08:14:32;;;;;;;21.45;8.35;;;;;;;2.98;100.00;100166.41;5069634;28;20047;-32
2021/12/09 08:17:11;;;;;;;22.70;9.38;;;;;;;3.00;100.00;100157.84;5069340;28;20064;-32
2021/12/09 08:19:39;;;;;;;25.17;9.45;;;;;;;3.04;100.00;100159.81;5069384;28;20048;-30
2021/12/09 08:22:08;;;;;;;28.38;9.05;;;;;;;3.08;100.00;100160.13;5069523;28;20032;-33
2021/12/09 08:24:36;;;;;;;22.55;8.98;;;;;;;3.12;100.00;100166.75;5068206;28;20413;-34
2021/12/09 08:27:04;;;;;;;21.17;8.55;;;;;;;3.16;100.00;100162.38;5067062;28;20044;-40
2021/12/09 08:29:33;;;;;;;25.00;9.35;;;;;;;3.19;100.00;100166.53;5069836;28;20045;-34
2021/12/09 08:32:01;;;;;;;26.65;9.60;;;;;;;3.22;100.00;100172.31;5067565;28;20075;-31
2021/12/09 08:34:29;;;;;;;23.48;9.80;;;;;;;3.21;100.00;100172.56;5069161;28;20072;-36
2021/12/09 08:36:57;;;;;;;23.15;9.50;;;;;;;3.24;100.00;100163.78;5069162;28;20417;-39
2021/12/09 08:39:25;;;;;;;25.25;9.82;;;;;;;3.23;100.00;100167.63;5068561;28;20050;-36
2021/12/09 08:41:52;;;;;;;27.90;10.65;;;;;;;3.28;100.00;100167.66;5067659;28;20063;-41
2021/12/09 08:44:20;;;;;;;21.23;9.85;;;;;;;3.30;100.00;100174.56;5068433;28;20128;-33
2021/12/09 08:46:50;;;;;;;19.52;8.98;;;;;;;3.34;100.00;100174.88;5070181;28;20129;-34
2021/12/09 08:49:18;;;;;;;30.17;11.10;;;;;;;3.35;100.00;100184.81;5070337;28;20049;-38
2021/12/09 08:51:45;;;;;;;25.85;10.02;;;;;;;3.38;100.00;100193.38;5073867;28;20131;-33
2021/12/09 08:54:14;;;;;;;23.08;9.60;;;;;;;3.43;100.00;100184.28;5074052;28;20055;-28
2021/12/09 08:56:43;;;;;;;19.83;9.48;;;;;;;3.45;100.00;100193.09;5058618;28;20032;-38
2021/12/09 08:59:11;;;;;;;20.45;9.15;;;;;;;3.48;100.00;100184.31;5074535;28;20078;-38
2021/12/09 09:02:01;;;;;;;22.77;9.07;;;;;;;3.46;100.00;100187.31;5058867;28;20132;-37
2021/12/09 09:04:29;;;;;;;25.58;9.55;;;;;;;3.47;100.00;100189.00;5074293;28;20490;-27
2021/12/09 09:06:59;;;;;;;20.90;9.93;;;;;;;3.48;100.00;100184.31;5074028;28;20052;-30
2021/12/09 09:09:32;;;;;;;25.08;10.65;;;;;;;3.50;100.00;100187.63;5074328;28;20053;-28
2021/12/09 09:12:01;;;;;;;20.33;9.45;;;;;;;3.53;100.00;100192.59;5074362;28;20143;-33
2021/12/09 09:14:29;;;;;;;21.40;9.57;;;;;;;3.49;100.00;100194.25;5073577;28;20416;-34
2021/12/09 09:16:57;;;;;;;22.25;10.07;;;;;;;3.49;100.00;100188.72;5074333;28;20386;-34
2021/12/09 09:19:27;;;;;;;23.02;10.07;;;;;;;3.53;100.00;100189.03;5072880;28;20048;-35
2021/12/09 09:21:54;;;;;;;22.80;9.98;;;;;;;3.54;100.00;100191.50;5073775;28;20040;-38
2021/12/09 09:24:22;;;;;;;20.70;9.70;;;;;;;3.52;100.00;100199.22;5073987;28;20174;-36
2021/12/09 09:26:50;;;;;;;20.33;9.90;;;;;;;3.58;100.00;100200.09;5072892;28;20485;-33
2021/12/09 09:29:19;;;;;;;16.60;9.18;;;;;;;3.60;100.00;100184.06;5072178;28;20502;-34
2021/12/09 09:31:47;;;;;;;25.05;9.70;;;;;;;3.59;100.00;100183.25;5074190;28;20064;-32
2021/12/09 09:34:14;;;;;;;24.10;9.88;;;;;;;3.62;100.00;100187.38;5073894;28;20158;-36
2021/12/09 09:36:44;;;;;;;23.65;9.35;;;;;;;3.61;100.00;100186.56;5062523;28;20135;-37
2021/12/09 09:39:18;;;;;;;24.05;9.63;;;;;;;3.64;100.00;100188.78;5073578;28;20180;-38
2021/12/09 09:41:55;;;;;;;21.33;9.30;;;;;;;3.66;100.00;100188.50;5073894;28;20048;-35
2021/12/09 09:44:29;;;;;;;19.30;8.88;;;;;;;3.67;100.00;100193.75;5073412;28;20045;-35
2021/12/09 09:46:59;;;;;;;21.90;9.85;;;;;;;3.69;100.00;100190.72;5074120;28;20076;-29
2021/12/09 09:49:28;;;;;;;23.10;9.98;;;;;;;3.67;100.00;100184.66;5072791;28;20056;-34
2021/12/09 09:51:58;;;;;;;22.48;9.30;;;;;;;3.67;100.00;100191.00;5073444;28;20139;-38
2021/12/09 09:54:27;;;;;;;20.20;9.35;;;;;;;3.66;100.00;100183.81;5073252;28;20052;-32
2021/12/09 09:56:54;;;;;;;24.45;10.52;;;;;;;3.68;100.00;100189.06;5069388;28;20177;-36
2021/12/09 09:59:22;;;;;;;20.80;9.50;;;;;;;3.73;100.00;100183.59;5073680;28;20399;-34
2021/12/09 10:01:53;;;;;;;24.58;10.40;;;;;;;3.77;100.00;100185.53;5073363;28;20079;-33
2021/12/09 10:04:31;;;;;;;24.40;10.10;;;;;;;3.89;100.00;100189.97;5073064;28;20110;-29
2021/12/09 10:07:01;;;;;;;19.92;9.35;;;;;;;4.11;100.00;100196.09;5073193;28;20066;-35
2021/12/09 10:09:29;;;;;;;22.17;10.77;;;;;;;4.34;100.00;100184.53;5073503;28;20075;-36
2021/12/09 10:11:57;;;;;;;20.73;10.32;;;;;;;4.53;100.00;100198.66;5072725;28;20501;-31
2021/12/09 10:14:29;;;;;;;18.05;9.93;;;;;;;4.69;100.00;100196.72;5073611;28;20036;-41
2021/12/09 10:17:06;;;;;;;19.58;10.15;;;;;;;4.77;100.00;100198.94;5073140;28;20049;-32
2021/12/09 10:19:36;;;;;;;20.08;9.52;;;;;;;4.81;100.00;100208.31;5057779;28;20040;-33
2021/12/09 10:22:10;;;;;;;21.08;9.70;;;;;;;4.79;100.00;100205.84;5072954;28;20484;-38
2021/12/09 10:24:39;;;;;;;19.95;9.07;;;;;;;4.78;100.00;100201.41;5072612;28;20045;-38
2021/12/09 10:27:08;;;;;;;22.88;9.40;;;;;;;4.74;100.00;100193.94;5072772;28;20047;-35
2021/12/09 10:29:40;;;;;;;17.48;9.77;;;;;;;4.71;100.00;100189.81;5072745;28;20516;-32
2021/12/09 10:32:11;;;;;;;24.50;10.13;;;;;;;4.64;100.00;100193.94;5072228;28;20047;-38
2021/12/09 10:34:40;;;;;;;24.17;10.68;;;;;;;4.69;100.00;100189.25;5073020;28;20052;-38
2021/12/09 10:37:16;;;;;;;21.88;9.75;;;;;;;4.72;100.00;100182.34;5072534;28;20048;-36
2021/12/09 10:39:48;;;;;;;20.67;9.60;;;;;;;4.74;100.00;100183.72;5072174;28;20047;-31
2021/12/09 10:42:20;;;;;;;24.98;11.43;;;;;;;4.78;100.00;100184.00;5071538;28;20055;-34
2021/12/09 10:44:51;;;;;;;21.20;10.00;;;;;;;4.84;100.00;100183.72;5073025;28;20041;-33
2021/12/09 10:47:34;;;;;;;26.80;10.27;;;;;;;4.92;100.00;100184.25;5071801;28;20136;-32
2021/12/09 10:50:15;;;;;;;21.33;10.00;;;;;;;4.93;100.00;100175.69;5072617;28;20056;-32
2021/12/09 10:52:49;;;;;;;24.73;10.90;;;;;;;4.91;100.00;100174.31;5068182;28;20233;-34
2021/12/09 10:55:20;;;;;;;19.83;10.43;;;;;;;4.82;100.00;100180.38;5072584;28;20049;-36
2021/12/09 10:57:58;;;;;;;20.83;10.23;;;;;;;4.80;100.00;100163.25;5072496;28;20047;-35
2021/12/09 11:00:30;;;;;;;22.38;10.90;;;;;;;4.80;100.00;100171.53;5071631;28;20414;-38
2021/12/09 11:03:06;;;;;;;20.63;11.10;;;;;;;4.86;100.00;100169.59;5071692;28;20044;-34
2021/12/09 11:05:35;;;;;;;21.83;10.55;;;;;;;4.92;100.00;100160.22;5072128;28;20516;-32
2021/12/09 11:08:25;;;;;;;22.60;11.05;;;;;;;5.01;100.00;100160.44;5070389;28;20110;-33
2021/12/09 11:10:59;;;;;;;19.27;10.68;;;;;;;5.06;100.00;100157.69;5072215;28;20055;-33
2021/12/09 11:13:36;;;;;;;20.52;10.27;;;;;;;5.19;100.00;100162.66;5067858;28;20391;-35
2021/12/09 11:16:05;;;;;;;23.70;10.90;;;;;;;5.27;100.00;100166.75;5071715;28;20048;-33
2021/12/09 11:18:37;;;;;;;23.55;11.65;;;;;;;5.26;100.00;100165.09;5068406;28;20049;-30
2021/12/09 11:21:10;;;;;;;20.83;11.88;;;;;;;5.24;100.00;100159.00;5070156;28;20056;-30
2021/12/09 11:23:41;;;;;;;;;;;;;;;5.20;100.00;100164.28;5071740;28;20044;-32
2021/12/09 11:26:43;;;;;;;19.33;10.90;;;;;;;5.17;100.00;100164.88;5071814;28;19931;-35
2021/12/09 11:29:12;;;;;;;22.05;11.30;;;;;;;5.17;100.00;100162.94;5069901;28;20059;-32
2021/12/09 11:31:50;;;;;;;19.88;10.80;;;;;;;5.16;100.00;100157.66;5071651;28;20070;-32